Flight Track Log - Related Links

Times and Time Zones

All times are in EST time to prevent confusion due to time zone crossing. See the N965LL flight status page for this flight to view local times or setup timezone preferences in your user account.

Time Position Orientation Groundspeed Altitude Reporting Facility
EST Latitude Longitude Course Direction KTS MPH feet Rate Location/Type
Mon 06:27:52 PM 26.6206 -80.0264 270° West 243 280 6,900  Level Miami Center
Mon 06:28:52 PM 26.6189 -80.0983 269° West 268 308 9,600 1,600 Climbing Miami Center
Mon 06:29:52 PM 26.6167 -80.1981 269° West 295 339 10,100 250 Climbing Miami Center
Mon 06:30:52 PM 26.6142 -80.3028 268° West 339 390 10,100 250 Level Miami Center
Mon 06:31:52 PM 26.6117 -80.4072 268° West 345 397 10,600 900 Climbing Miami Center
Mon 06:32:00 PM 26.6000 -80.5297 270° West  Level FlightAware Approximate
Mon 06:32:52 PM 26.6131 -80.5186 271° West 350 403 11,900  Level Miami Center
Mon 06:33:52 PM 26.5875 -80.6200 254° West 357 411 14,500 2,800 Climbing Miami Center
Mon 06:34:52 PM 26.5208 -80.6944 225° Southwest 334 384 17,500 2,700 Climbing Miami Center
Mon 06:35:52 PM 26.4325 -80.7217 195° South 329 379 19,900 2,250 Climbing Miami Center
Mon 06:36:52 PM 26.3419 -80.7419 191° South 334 384 22,000 2,050 Climbing Miami Center
Mon 06:37:52 PM 26.2475 -80.7622 191° South 340 391 24,000 1,750 Climbing Miami Center
Mon 06:38:52 PM 26.1678 -80.7803 191° South 340 391 25,500 1,650 Climbing Miami Center
Mon 06:39:52 PM 26.0689 -80.8003 190° South 346 398 27,300 1,250 Climbing Miami Center
Mon 06:40:52 PM 25.9639 -80.8244 192° South 367 422 28,000 350 Climbing Miami Center
Mon 06:41:52 PM 25.8506 -80.8508 192° South 393 452 28,000  Level Miami Center
Mon 06:42:52 PM 25.7306 -80.8789 192° South 421 484 28,000  Level Miami Center
Mon 06:43:52 PM 25.6267 -80.9422 209° Southwest 435 501 28,000  Level Miami Center
Mon 06:44:52 PM 25.5506 -81.0411 230° Southwest 425 489 28,000  Level Miami Center
Mon 06:45:52 PM 25.4789 -81.1422 232° Southwest 417 480 28,000  Level Miami Center
Mon 06:46:52 PM 25.4028 -81.2406 229° Southwest 417 480 28,000  Level Miami Center
Mon 06:47:52 PM 25.3289 -81.3392 230° Southwest 423 487 28,000  Level Miami Center
Mon 06:48:52 PM 25.2547 -81.4375 230° Southwest 423 487 28,000  Level Miami Center
Mon 06:49:52 PM 25.1700 -81.5444 229° Southwest 423 487 28,000  Level Miami Center
Mon 06:50:52 PM 25.0981 -81.6425 231° Southwest 423 487 28,000  Level Miami Center
Mon 06:51:52 PM 25.0239 -81.7406 230° Southwest 423 487 28,000  Level Miami Center
Mon 06:52:52 PM 24.9475 -81.8381 229° Southwest 423 487 28,000  Level Miami Center
Mon 06:53:52 PM 24.8731 -81.9358 230° Southwest 423 487 28,000  Level Miami Center
Mon 06:54:52 PM 24.7947 -82.0308 228° Southwest 418 481 28,000  Level Miami Center
Mon 06:55:52 PM 24.7222 -82.1286 231° Southwest 418 481 28,000  Level Miami Center
Mon 06:56:52 PM 24.6478 -82.2258 230° Southwest 418 481 28,000  Level Miami Center
Mon 06:57:52 PM 24.5692 -82.3206 228° Southwest 418 481 28,000  Level Miami Center
Mon 06:58:52 PM 24.4944 -82.4200 230° Southwest 418 481 28,000  Level Miami Center
Mon 06:59:52 PM 24.4178 -82.5192 230° Southwest 424 488 28,000  Level Miami Center
Mon 07:00:52 PM 24.3431 -82.6158 230° Southwest 424 488 28,000  Level Miami Center
Mon 07:01:52 PM 24.2664 -82.7103 228° Southwest 424 488 28,000  Level Miami Center
Mon 07:02:52 PM 24.1933 -82.8117 232° Southwest 419 482 28,000  Level Miami Center
Mon 07:03:52 PM 24.1144 -82.9056 227° Southwest 419 482 28,000  Level Miami Center
Mon 07:04:52 PM 24.0375 -83.0042 230° Southwest 419 482 28,000  Level Miami Center
Mon 07:05:52 PM 23.9786 -83.1125 239° Southwest 419 482 28,000  Level Miami Center
Mon 07:07:00 PM 23.9130 -83.2428 241° Southwest  Level FlightAware Approximate
Mon 07:14:00 PM 23.5339 -84.0609 244° Southwest  Level FlightAware Approximate
Mon 07:15:00 PM 23.4807 -84.1781 243° Southwest  Level FlightAware Approximate
Mon 07:16:00 PM 23.4267 -84.2949 243° Southwest  Level FlightAware Approximate
Mon 07:17:00 PM 23.3715 -84.4110 242° Southwest  Level FlightAware Approximate
Mon 07:18:00 PM 23.3160 -84.5268 242° Southwest  Level FlightAware Approximate
Mon 07:19:00 PM 23.2604 -84.6425 242° Southwest  Level FlightAware Approximate
Mon 07:20:00 PM 23.2052 -84.7583 243° Southwest  Level FlightAware Approximate
Mon 07:21:00 PM 23.1514 -84.8750 243° Southwest  Level FlightAware Approximate
Mon 07:22:00 PM 23.0972 -84.9913 243° Southwest  Level FlightAware Approximate
Mon 07:23:00 PM 23.0424 -85.1074 243° Southwest  Level FlightAware Approximate
Mon 07:24:00 PM 22.9876 -85.2233 243° Southwest  Level FlightAware Approximate
Mon 07:25:00 PM 22.9326 -85.3391 243° Southwest  Level FlightAware Approximate
Mon 07:26:00 PM 22.8776 -85.4548 243° Southwest  Level FlightAware Approximate
Mon 07:27:00 PM 22.8225 -85.5704 243° Southwest  Level FlightAware Approximate
Mon 07:28:00 PM 22.7673 -85.6859 243° Southwest  Level FlightAware Approximate
Mon 07:29:00 PM 22.7121 -85.8014 243° Southwest  Level FlightAware Approximate
Mon 07:30:00 PM 22.6567 -85.9167 243° Southwest  Level FlightAware Approximate
Mon 07:31:00 PM 22.6027 -86.0327 245° Southwest  Level FlightAware Approximate
Mon 07:32:00 PM 22.5509 -86.1499 243° Southwest  Level FlightAware Approximate
Mon 07:33:00 PM 22.4960 -86.2653 243° Southwest  Level FlightAware Approximate
Mon 07:34:00 PM 22.4410 -86.3807 243° Southwest  Level FlightAware Approximate
Mon 07:35:00 PM 22.3960 -86.4994 262° West  Level FlightAware Approximate
Mon 07:36:00 PM 22.3800 -86.6280 262° West  Level FlightAware Approximate
Mon 07:37:00 PM 22.3639 -86.7565 262° West  Level FlightAware Approximate
Mon 07:38:00 PM 22.3467 -86.8848 259° West  Level FlightAware Approximate
Mon 07:39:00 PM 22.3236 -87.0121 259° West  Level FlightAware Approximate
Mon 07:40:00 PM 22.3039 -87.1400 261° West  Level FlightAware Approximate
Mon 07:41:00 PM 22.2858 -87.2681 261° West  Level FlightAware Approximate
Mon 07:42:00 PM 22.2675 -87.3962 261° West  Level FlightAware Approximate
Mon 07:43:00 PM 22.2491 -87.5243 261° West  Level FlightAware Approximate
Mon 07:44:00 PM 22.2307 -87.6524 262° West  Level FlightAware Approximate
Mon 07:45:00 PM 22.2132 -87.7806 262° West  Level FlightAware Approximate
Mon 07:46:00 PM 22.1955 -87.9087 262° West  Level FlightAware Approximate
Mon 07:47:00 PM 22.1778 -88.0368 262° West  Level FlightAware Approximate
Mon 07:48:00 PM 22.1600 -88.1649 262° West  Level FlightAware Approximate
Mon 07:49:00 PM 22.1424 -88.2930 262° West  Level FlightAware Approximate
Mon 07:50:00 PM 22.1246 -88.4211 262° West  Level FlightAware Approximate
Mon 07:51:00 PM 22.1067 -88.5491 261° West  Level FlightAware Approximate
Mon 07:52:00 PM 22.0888 -88.6771 261° West  Level FlightAware Approximate
Mon 07:53:00 PM 22.0707 -88.8051 261° West  Level FlightAware Approximate
Mon 07:54:00 PM 22.0525 -88.9331 261° West  Level FlightAware Approximate
Mon 07:55:00 PM 22.0342 -89.0610 261° West  Level FlightAware Approximate
Mon 07:56:00 PM 22.0159 -89.1888 261° West  Level FlightAware Approximate
Mon 07:57:00 PM 21.9979 -89.3167 262° West  Level FlightAware Approximate
Mon 07:58:00 PM 21.9820 -89.4450 262° West  Level FlightAware Approximate
Mon 07:59:00 PM 21.9660 -89.5732 262° West  Level FlightAware Approximate
Mon 08:00:00 PM 21.9498 -89.7013 260° West  Level FlightAware Approximate
Mon 08:01:00 PM 21.9287 -89.8286 260° West  Level FlightAware Approximate
Mon 08:02:00 PM 21.9076 -89.9559 260° West  Level FlightAware Approximate
Mon 08:03:00 PM 21.8863 -90.0831 260° West  Level FlightAware Approximate
Mon 08:04:00 PM 21.8649 -90.2103 259° West  Level FlightAware Approximate
Mon 08:05:00 PM 21.8429 -90.3374 259° West  Level FlightAware Approximate
Mon 08:06:00 PM 21.8208 -90.4644 259° West  Level FlightAware Approximate
Mon 08:07:00 PM 21.7988 -90.5914 261° West  Level FlightAware Approximate
Mon 08:08:00 PM 21.7793 -90.7188 261° West  Level FlightAware Approximate
Mon 08:09:00 PM 21.7597 -90.8463 261° West  Level FlightAware Approximate
Mon 08:10:00 PM 21.7400 -90.9737 261° West  Level FlightAware Approximate
Mon 08:11:00 PM 21.7202 -91.1010 261° West  Level FlightAware Approximate
Mon 08:12:00 PM 21.7004 -91.2284 261° West  Level FlightAware Approximate
Mon 08:13:00 PM 21.6805 -91.3557 260° West  Level FlightAware Approximate
Mon 08:14:00 PM 21.6604 -91.4829 260° West  Level FlightAware Approximate
Mon 08:15:00 PM 21.6403 -91.6102 260° West  Level FlightAware Approximate
Mon 08:16:00 PM 21.6201 -91.7373 260° West  Level FlightAware Approximate
Mon 08:17:00 PM 21.5997 -91.8645 260° West  Level FlightAware Approximate
Mon 08:18:00 PM 21.5793 -91.9916 260° West  Level FlightAware Approximate
Mon 08:19:00 PM 21.5588 -92.1187 260° West  Level FlightAware Approximate
Mon 08:20:00 PM 21.5382 -92.2458 260° West  Level FlightAware Approximate
Mon 08:21:00 PM 21.5176 -92.3728 260° West  Level FlightAware Approximate
Mon 08:22:00 PM 21.4968 -92.4998 260° West  Level FlightAware Approximate
Mon 08:23:00 PM 21.4759 -92.6267 260° West  Level FlightAware Approximate
Mon 08:24:00 PM 21.4549 -92.7536 260° West  Level FlightAware Approximate
Mon 08:25:00 PM 21.4338 -92.8805 260° West  Level FlightAware Approximate
Mon 08:26:00 PM 21.4124 -93.0073 260° West  Level FlightAware Approximate
Mon 08:27:00 PM 21.3910 -93.1340 260° West  Level FlightAware Approximate
Mon 08:28:00 PM 21.3695 -93.2608 260° West  Level FlightAware Approximate
Mon 08:29:00 PM 21.3479 -93.3875 260° West  Level FlightAware Approximate
Mon 08:30:00 PM 21.3263 -93.5141 260° West  Level FlightAware Approximate
Mon 08:31:00 PM 21.3045 -93.6408 260° West  Level FlightAware Approximate
Mon 08:32:00 PM 21.2828 -93.7674 260° West  Level FlightAware Approximate
Mon 08:33:00 PM 21.2610 -93.8940 260° West  Level FlightAware Approximate
Mon 08:34:00 PM 21.2392 -94.0205 260° West  Level FlightAware Approximate
Mon 08:35:00 PM 21.2172 -94.1470 259° West  Level FlightAware Approximate
Mon 08:36:00 PM 21.1952 -94.2735 259° West  Level FlightAware Approximate
Mon 08:37:00 PM 21.1731 -94.3999 259° West  Level FlightAware Approximate
Mon 08:38:00 PM 21.1508 -94.5263 259° West  Level FlightAware Approximate
Mon 08:39:00 PM 21.1285 -94.6527 259° West  Level FlightAware Approximate
Mon 08:40:00 PM 21.1061 -94.7790 259° West  Level FlightAware Approximate
Mon 08:41:00 PM 21.0836 -94.9053 259° West  Level FlightAware Approximate
Mon 08:42:00 PM 21.0608 -95.0315 259° West  Level FlightAware Approximate
Mon 08:43:00 PM 21.0372 -95.1575 259° West  Level FlightAware Approximate
Mon 08:44:00 PM 21.0136 -95.2835 259° West  Level FlightAware Approximate
Mon 08:45:00 PM 20.9903 -95.4096 259° West  Level FlightAware Approximate
Mon 08:46:00 PM 20.9670 -95.5356 259° West  Level FlightAware Approximate
Mon 08:47:00 PM 20.9435 -95.6616 259° West  Level FlightAware Approximate
Mon 08:48:00 PM 20.9200 -95.7875 259° West  Level FlightAware Approximate
Mon 08:49:00 PM 20.8964 -95.9134 259° West  Level FlightAware Approximate
Mon 08:50:00 PM 20.8727 -96.0392 259° West  Level FlightAware Approximate
Mon 08:51:00 PM 20.8488 -96.1650 259° West  Level FlightAware Approximate
Mon 08:52:00 PM 20.8249 -96.2908 259° West  Level FlightAware Approximate
Mon 08:53:00 PM 20.8009 -96.4165 258° West  Level FlightAware Approximate
Mon 08:54:00 PM 20.7769 -96.5422 258° West  Level FlightAware Approximate
Mon 08:55:00 PM 20.7527 -96.6679 258° West  Level FlightAware Approximate
Mon 08:56:00 PM 20.7284 -96.7935 258° West  Level FlightAware Approximate
Mon 08:57:00 PM 20.7041 -96.9191 258° West  Level FlightAware Approximate
Mon 08:58:00 PM 20.6796 -97.0446 258° West  Level FlightAware Approximate
Mon 08:59:00 PM 20.6551 -97.1701 258° West  Level FlightAware Approximate
Mon 09:00:00 PM 20.6305 -97.2955 258° West  Level FlightAware Approximate
Mon 09:01:00 PM 20.6057 -97.4209 258° West  Level FlightAware Approximate
Mon 09:02:00 PM 20.5307 -97.5149 221° Southwest  Level FlightAware Approximate
Mon 09:03:00 PM 20.4405 -97.5993 221° Southwest  Level FlightAware Approximate
Mon 09:04:00 PM 20.3502 -97.6836 221° Southwest  Level FlightAware Approximate
Mon 09:05:00 PM 20.2599 -97.7678 221° Southwest  Level FlightAware Approximate
Mon 09:06:00 PM 20.1696 -97.8520 221° Southwest  Level FlightAware Approximate
Mon 09:07:00 PM 20.0799 -97.9368 223° Southwest  Level FlightAware Approximate
Mon 09:08:00 PM 19.9925 -98.0242 223° Southwest  Level FlightAware Approximate
Mon 09:09:00 PM 19.9069 -98.1135 227° Southwest  Level FlightAware Approximate
Mon 09:10:00 PM 19.8252 -98.2069 227° Southwest  Level FlightAware Approximate
Mon 09:11:00 PM 19.7384 -98.2949 223° Southwest  Level FlightAware Approximate
Mon 09:12:00 PM 19.6448 -98.3742 217° Southwest  Level FlightAware Approximate
Mon 09:13:00 PM 19.6010 -98.4901 254° West  Level FlightAware Approximate
Mon 09:14:00 PM 19.5671 -98.6122 254° West  Level FlightAware Approximate
Mon 09:15:00 PM 19.5331 -98.7343 252° West  Level FlightAware Approximate
Mon 09:16:00 PM 19.4967 -98.8556 252° West  Level FlightAware Approximate
Mon 09:17:00 PM 19.4603 -98.9768 252° West  Level FlightAware Approximate
Mon 09:18:00 PM 19.4230 -99.0977 251° West  Level FlightAware Approximate
Mon 09:19:00 PM 19.3976 -99.2218 259° West  Level FlightAware Approximate
Mon 09:20:00 PM 19.3789 -99.3467 251° West  Level FlightAware Approximate
Mon 09:21:00 PM 19.3500 -99.4698 270° West  Level FlightAware Approximate
Mon 09:22:00 PM 19.3500 -99.5667 270° West  Level FlightAware Approximate
Mon 09:23:00 PM 19.3371 -99.5660 270° West  Level Estimated
Mon 09:24:00 PM 19.3371 -99.5660 270° West  Level Estimated
Mon 09:25:00 PM 19.3371 -99.5660 270° West  Level Estimated
Mon 09:26:00 PM 19.3371 -99.5660 270° West  Level Estimated
Mon 09:27:00 PM 19.3371 -99.5660 270° West  Level Estimated
Mon 09:28:00 PM 19.3371 -99.5660 270° West  Level Estimated
Mon 09:29:00 PM 19.3371 -99.5660 270° West  Level Estimated
Mon 09:30:00 PM 19.3371 -99.5660 270° West  Level Estimated
Mon 09:31:00 PM 19.3371 -99.5660 270° West  Level Estimated
Mon 09:32:00 PM 19.3371 -99.5660 270° West  Level Estimated
Mon 09:33:00 PM 19.3371 -99.5660 270° West  Level Estimated
Mon 09:34:00 PM 19.3371 -99.5660 270° West  Level Estimated
Mon 09:35:00 PM 19.3371 -99.5660 270° West  Level Estimated
Mon 09:36:00 PM 19.3371 -99.5660 270° West  Level Estimated
Mon 09:37:00 PM 19.3371 -99.5660 270° West  Level Estimated
Mon 09:38:00 PM 19.3371 -99.5660 270° West  Level Estimated
Mon 09:39:00 PM 19.3371 -99.5660 270° West  Level Estimated
Mon 09:40:00 PM 19.3371 -99.5660 270° West  Level Estimated
Mon 09:41:00 PM 19.3371 -99.5660 270° West  Level Estimated
Mon 09:42:00 PM 19.3371 -99.5660 270° West  Level Estimated

Login

Don't have an account? Register now (free) for customized features, flight alerts, and more!